Time,TemperatureF,DewpointF,PressureIn,WindDirection,WindDirectionDegrees,WindSpeedMPH,WindSpeedGustMPH,Humidity,HourlyPrecipIn,Conditions,Clouds,dailyrainin,SoftwareType,DateUTC
2013-03-29 00:00:00,28.9,20.0,30.19,SSE,148,0.0,0.0,69,0.00,,SKC,0.00,VWS V14.01,2013-03-29 05:00:00,
2013-03-29 00:04:00,29.0,20.1,30.19,SSE,148,0.0,0.0,69,0.00,,SKC,0.00,VWS V14.01,2013-03-29 05:04:00,
2013-03-29 00:09:00,28.8,19.9,30.19,SSE,148,0.0,0.0,69,0.00,,SKC,0.00,VWS V14.01,2013-03-29 05:09:00,
2013-03-29 00:15:00,28.7,20.2,30.19,SSE,148,0.0,0.0,70,0.00,,SKC,0.00,VWS V14.01,2013-03-29 05:15:00,
2013-03-29 00:20:00,28.7,20.5,30.19,SSE,148,0.0,0.0,71,0.00,,SKC,0.00,VWS V14.01,2013-03-29 05:20:00,
2013-03-29 00:25:00,28.3,20.4,30.19,SSE,148,0.0,0.0,72,0.00,,SKC,0.00,VWS V14.01,2013-03-29 05:25:00,
2013-03-29 00:30:00,27.9,20.1,30.19,SSE,148,0.0,0.0,72,0.00,,SKC,0.00,VWS V14.01,2013-03-29 05:30:00,
2013-03-29 00:36:00,27.8,20.0,30.20,SSE,148,0.0,0.0,72,0.00,,SKC,0.00,VWS V14.01,2013-03-29 05:36:00,
2013-03-29 00:41:00,27.7,19.5,30.20,SSE,148,0.0,0.0,71,0.00,,SKC,0.00,VWS V14.01,2013-03-29 05:41:00,
2013-03-29 00:47:00,27.6,19.8,30.20,SSE,148,0.0,0.0,72,0.00,,SKC,0.00,VWS V14.01,2013-03-29 05:47:00,
2013-03-29 00:52:00,27.3,19.8,30.20,SSE,148,0.0,0.0,73,0.00,,SKC,0.00,VWS V14.01,2013-03-29 05:52:00,
2013-03-29 00:58:00,27.1,19.3,30.20,SSE,148,0.0,0.0,72,0.00,,SKC,0.00,VWS V14.01,2013-03-29 05:58:00,
2013-03-29 01:00:00,28.9,20.0,30.19,SSE,148,0.0,0.0,69,0.00,,SKC,0.00,VWS V14.01,2013-03-29 06:00:00,
2013-03-29 01:03:00,27.1,19.9,30.20,SSE,148,0.0,0.0,74,0.00,,SKC,0.00,VWS V14.01,2013-03-29 06:03:00,
2013-03-29 01:08:00,27.0,19.8,30.19,SSE,148,0.0,0.0,74,0.00,,SKC,0.00,VWS V14.01,2013-03-29 06:08:00,
2013-03-29 01:13:00,27.0,19.5,30.19,SSE,148,0.0,0.0,73,0.00,,SKC,0.00,VWS V14.01,2013-03-29 06:13:00,
2013-03-29 01:18:00,26.9,19.4,30.19,SSE,148,0.0,0.0,73,0.00,,SKC,0.00,VWS V14.01,2013-03-29 06:18:00,
2013-03-29 01:23:00,26.7,19.5,30.19,SSE,148,0.0,0.0,74,0.00,,SKC,0.00,VWS V14.01,2013-03-29 06:23:00,
2013-03-29 01:28:00,26.7,19.2,30.19,SSE,148,0.0,0.0,73,0.00,,SKC,0.00,VWS V14.01,2013-03-29 06:28:00,
2013-03-29 01:30:00,27.8,20.0,30.20,SSE,148,0.0,0.0,72,0.00,,SKC,0.00,VWS V14.01,2013-03-29 06:30:00,
2013-03-29 01:33:00,26.6,19.1,30.19,SSE,148,0.0,0.0,73,0.00,,SKC,0.00,VWS V14.01,2013-03-29 06:33:00,
2013-03-29 01:38:00,26.5,19.0,30.19,SSE,148,0.0,0.0,73,0.00,,SKC,0.00,VWS V14.01,2013-03-29 06:38:00,
2013-03-29 01:43:00,26.5,19.0,30.19,SSE,148,0.0,0.0,73,0.00,,SKC,0.00,VWS V14.01,2013-03-29 06:43:00,
2013-03-29 01:48:00,26.5,19.7,30.19,SSE,148,0.0,0.0,75,0.00,,SKC,0.00,VWS V14.01,2013-03-29 06:48:00,
2013-03-29 01:54:00,26.2,19.7,30.20,SSE,148,0.0,0.0,76,0.00,,SKC,0.00,VWS V14.01,2013-03-29 06:54:00,
2013-03-29 01:59:00,25.9,19.1,30.20,SSE,148,0.0,0.0,75,0.00,,SKC,0.00,VWS V14.01,2013-03-29 06:59:00,
2013-03-29 02:00:00,27.1,19.9,30.20,SSE,148,0.0,0.0,74,0.00,,SKC,0.00,VWS V14.01,2013-03-29 07:00:00,
2013-03-29 02:04:00,25.8,19.3,30.20,SSE,148,0.0,0.0,76,0.00,,SKC,0.00,VWS V14.01,2013-03-29 07:04:00,
2013-03-29 02:09:00,25.7,19.2,30.20,SSE,148,0.0,0.0,76,0.00,,SKC,0.00,VWS V14.01,2013-03-29 07:09:00,
2013-03-29 02:14:00,25.6,19.1,30.20,SSE,148,0.0,0.0,76,0.00,,SKC,0.00,VWS V14.01,2013-03-29 07:14:00,
2013-03-29 02:19:00,25.6,18.8,30.20,SSE,148,0.0,0.0,75,0.00,,SKC,0.00,VWS V14.01,2013-03-29 07:19:00,
2013-03-29 02:24:00,25.7,18.9,30.20,SSE,148,0.0,0.0,75,0.00,,SKC,0.00,VWS V14.01,2013-03-29 07:24:00,
2013-03-29 02:29:00,25.6,18.8,30.20,SSE,148,0.0,0.0,75,0.00,,SKC,0.00,VWS V14.01,2013-03-29 07:29:00,
2013-03-29 02:30:00,26.6,19.1,30.19,SSE,148,0.0,0.0,73,0.00,,SKC,0.00,VWS V14.01,2013-03-29 07:30:00,
2013-03-29 02:34:00,25.6,18.8,30.20,SSE,148,0.0,0.0,75,0.00,,SKC,0.00,VWS V14.01,2013-03-29 07:34:00,
2013-03-29 02:39:00,25.5,18.7,30.20,SSE,148,0.0,0.0,75,0.00,,SKC,0.00,VWS V14.01,2013-03-29 07:39:00,
2013-03-29 02:44:00,25.3,18.8,30.20,SSE,148,0.0,0.0,76,0.00,,SKC,0.00,VWS V14.01,2013-03-29 07:44:00,
2013-03-29 02:49:00,25.2,19.0,30.20,SSE,148,0.0,0.0,77,0.00,,SKC,0.00,VWS V14.01,2013-03-29 07:49:00,
2013-03-29 02:54:00,25.1,19.8,30.20,SSE,148,0.0,0.0,80,0.00,,SKC,0.00,VWS V14.01,2013-03-29 07:54:00,
2013-03-29 03:00:00,25.0,19.7,30.20,SSE,148,0.0,0.0,80,0.00,,SKC,0.00,VWS V14.01,2013-03-29 08:00:00,
2013-03-29 03:05:00,24.9,19.0,30.20,SSE,148,0.0,0.0,78,0.00,,SKC,0.00,VWS V14.01,2013-03-29 08:05:00,
2013-03-29 03:10:00,24.8,18.9,30.20,SSE,148,0.0,0.0,78,0.00,,SKC,0.00,VWS V14.01,2013-03-29 08:10:00,
2013-03-29 03:15:00,24.7,18.8,30.20,SSE,148,0.0,0.0,78,0.00,,SKC,0.00,VWS V14.01,2013-03-29 08:15:00,
2013-03-29 03:20:00,24.5,18.6,30.20,SSE,148,0.0,0.0,78,0.00,,SKC,0.00,VWS V14.01,2013-03-29 08:20:00,
2013-03-29 03:25:00,24.2,18.3,30.20,SSE,148,0.0,0.0,78,0.00,,SKC,0.00,VWS V14.01,2013-03-29 08:25:00,
2013-03-29 03:30:00,24.0,18.5,30.20,SSE,148,0.0,0.0,79,0.00,,SKC,0.00,VWS V14.01,2013-03-29 08:30:00,
2013-03-29 03:35:00,23.8,18.2,30.20,SSE,148,0.0,0.0,79,0.00,,SKC,0.00,VWS V14.01,2013-03-29 08:35:00,
2013-03-29 03:40:00,23.5,18.0,30.20,SSE,148,0.0,0.0,79,0.00,,SKC,0.00,VWS V14.01,2013-03-29 08:40:00,
2013-03-29 03:45:00,23.3,17.8,30.20,SSE,148,0.0,0.0,79,0.00,,SKC,0.00,VWS V14.01,2013-03-29 08:45:00,
2013-03-29 03:50:00,23.2,18.2,30.19,SSE,148,0.0,0.0,81,0.00,,SKC,0.00,VWS V14.01,2013-03-29 08:50:00,
2013-03-29 03:56:00,23.3,18.6,30.19,SSE,148,0.0,0.0,82,0.00,,SKC,0.00,VWS V14.01,2013-03-29 08:56:00,
2013-03-29 04:00:00,24.9,19.0,30.20,SSE,148,0.0,0.0,78,0.00,,SKC,0.00,VWS V14.01,2013-03-29 09:00:00,
2013-03-29 04:01:00,23.4,18.7,30.19,SSE,148,0.0,0.0,82,0.00,,SKC,0.00,VWS V14.01,2013-03-29 09:01:00,
2013-03-29 04:06:00,23.3,18.6,30.19,SSE,148,0.0,0.0,82,0.00,,SKC,0.00,VWS V14.01,2013-03-29 09:06:00,
2013-03-29 04:11:00,23.6,18.9,30.20,SSE,148,0.0,1.0,82,0.00,,SKC,0.00,VWS V14.01,2013-03-29 09:11:00,
2013-03-29 04:16:00,23.9,19.2,30.20,SSE,148,0.0,1.0,82,0.00,,SKC,0.00,VWS V14.01,2013-03-29 09:16:00,
2013-03-29 04:22:00,23.8,18.8,30.20,SSE,148,0.0,1.0,81,0.00,,SKC,0.00,VWS V14.01,2013-03-29 09:22:00,
2013-03-29 04:27:00,23.6,18.6,30.20,SSE,148,0.0,1.0,81,0.00,,SKC,0.00,VWS V14.01,2013-03-29 09:27:00,
2013-03-29 04:30:00,23.8,18.2,30.20,SSE,148,0.0,0.0,79,0.00,,SKC,0.00,VWS V14.01,2013-03-29 09:30:00,
2013-03-29 04:32:00,23.4,18.7,30.20,SSE,148,0.0,1.0,82,0.00,,SKC,0.00,VWS V14.01,2013-03-29 09:32:00,
2013-03-29 04:37:00,23.2,18.5,30.20,SSE,148,0.0,0.0,82,0.00,,SKC,0.00,VWS V14.01,2013-03-29 09:37:00,
2013-03-29 04:42:00,23.0,18.3,30.20,SSE,148,0.0,0.0,82,0.00,,SKC,0.00,VWS V14.01,2013-03-29 09:42:00,
2013-03-29 04:47:00,22.9,18.5,30.20,SSE,148,0.0,0.0,83,0.00,,SKC,0.00,VWS V14.01,2013-03-29 09:47:00,
2013-03-29 04:52:00,22.9,18.5,30.20,SSE,148,0.0,0.0,83,0.00,,SKC,0.00,VWS V14.01,2013-03-29 09:52:00,
2013-03-29 04:58:00,22.9,18.5,30.20,SSE,148,0.0,0.0,83,0.00,,SKC,0.00,VWS V14.01,2013-03-29 09:58:00,
2013-03-29 05:00:00,23.3,18.6,30.19,SSE,148,0.0,0.0,82,0.00,,SKC,0.00,VWS V14.01,2013-03-29 10:00:00,
2013-03-29 05:03:00,23.0,18.6,30.19,SSE,148,0.0,0.0,83,0.00,,SKC,0.00,VWS V14.01,2013-03-29 10:03:00,
2013-03-29 05:08:00,23.1,18.7,30.20,SSE,148,0.0,0.0,83,0.00,,SKC,0.00,VWS V14.01,2013-03-29 10:08:00,
2013-03-29 05:13:00,23.4,19.0,30.20,SSE,148,0.0,0.0,83,0.00,,SKC,0.00,VWS V14.01,2013-03-29 10:13:00,
2013-03-29 05:18:00,23.5,19.4,30.20,SSE,148,0.0,0.0,84,0.00,,SKC,0.00,VWS V14.01,2013-03-29 10:18:00,
2013-03-29 05:23:00,23.7,19.6,30.19,SSE,148,0.0,0.0,84,0.00,,SKC,0.00,VWS V14.01,2013-03-29 10:23:00,
2013-03-29 05:28:00,23.9,19.5,30.19,SSE,148,1.0,2.0,83,0.00,,SKC,0.00,VWS V14.01,2013-03-29 10:28:00,
2013-03-29 05:30:00,23.3,18.6,30.20,SSE,148,0.0,1.0,82,0.00,,SKC,0.00,VWS V14.01,2013-03-29 10:30:00,
2013-03-29 05:33:00,24.0,19.6,30.19,SSE,148,0.0,3.0,83,0.00,,SKC,0.00,VWS V14.01,2013-03-29 10:33:00,
2013-03-29 05:38:00,24.5,20.1,30.19,SSE,148,0.0,0.0,83,0.00,,SKC,0.00,VWS V14.01,2013-03-29 10:38:00,
2013-03-29 05:44:00,24.8,20.4,30.19,SSE,148,0.0,0.0,83,0.00,,SKC,0.00,VWS V14.01,2013-03-29 10:44:00,
2013-03-29 05:49:00,24.9,20.2,30.19,SSE,148,0.0,0.0,82,0.00,,SKC,0.00,VWS V14.01,2013-03-29 10:49:00,
2013-03-29 05:54:00,25.1,20.1,30.20,SSE,148,0.0,0.0,81,0.00,,SKC,0.00,VWS V14.01,2013-03-29 10:54:00,
2013-03-29 05:59:00,25.3,20.6,30.20,SSE,148,0.0,0.0,82,0.00,,SKC,0.00,VWS V14.01,2013-03-29 10:59:00,
2013-03-29 06:00:00,23.1,18.7,30.19,SSE,148,0.0,1.0,83,0.00,,SKC,0.00,VWS V14.01,2013-03-29 11:00:00,
2013-03-29 06:04:00,25.3,20.9,30.20,SSE,148,0.0,0.0,83,0.00,,SKC,0.00,VWS V14.01,2013-03-29 11:04:00,
2013-03-29 06:09:00,25.2,20.8,30.20,SSE,148,0.0,0.0,83,0.00,,SKC,0.00,VWS V14.01,2013-03-29 11:09:00,
2013-03-29 06:15:00,25.2,20.8,30.20,SSE,148,0.0,0.0,83,0.00,,SKC,0.00,VWS V14.01,2013-03-29 11:15:00,
2013-03-29 06:20:00,25.2,20.5,30.20,SSE,148,0.0,0.0,82,0.00,,SKC,0.00,VWS V14.01,2013-03-29 11:20:00,
2013-03-29 06:25:00,25.2,20.5,30.20,SSE,148,0.0,0.0,82,0.00,,SKC,0.00,VWS V14.01,2013-03-29 11:25:00,
2013-03-29 06:30:00,25.2,20.5,30.20,SSE,148,0.0,0.0,82,0.00,,SKC,0.00,VWS V14.01,2013-03-29 11:30:00,
2013-03-29 06:35:00,25.2,20.5,30.20,SSE,148,0.0,0.0,82,0.00,,SKC,0.00,VWS V14.01,2013-03-29 11:35:00,
2013-03-29 06:40:00,25.6,21.5,30.19,SSE,148,0.0,0.0,84,0.00,,SKC,0.00,VWS V14.01,2013-03-29 11:40:00,
2013-03-29 06:45:00,25.7,21.8,30.19,SSE,148,0.0,0.0,85,0.00,,SKC,0.00,VWS V14.01,2013-03-29 11:45:00,
2013-03-29 06:50:00,25.8,21.6,30.20,SSE,148,0.0,0.0,84,0.00,,SKC,0.00,VWS V14.01,2013-03-29 11:50:00,
2013-03-29 06:55:00,25.8,21.4,30.19,SSE,148,0.0,0.0,83,0.00,,SKC,0.00,VWS V14.01,2013-03-29 11:55:00,
2013-03-29 07:00:00,25.9,21.2,30.19,SSE,148,0.0,0.0,82,0.00,,SKC,0.00,VWS V14.01,2013-03-29 12:00:00,
2013-03-29 07:05:00,26.0,21.3,30.20,SSE,148,0.0,0.0,82,0.00,,SKC,0.00,VWS V14.01,2013-03-29 12:05:00,
2013-03-29 07:11:00,26.0,21.3,30.20,SSE,148,1.0,1.0,82,0.00,,SKC,0.00,VWS V14.01,2013-03-29 12:11:00,
2013-03-29 07:17:00,26.2,21.2,30.20,SSE,148,2.0,4.0,81,0.00,,SKC,0.00,VWS V14.01,2013-03-29 12:17:00,
2013-03-29 07:22:00,26.5,21.5,30.20,SSE,148,0.0,4.0,81,0.00,,SKC,0.00,VWS V14.01,2013-03-29 12:22:00,
2013-03-29 07:28:00,26.7,21.4,30.20,SSE,148,0.0,4.0,80,0.00,,SKC,0.00,VWS V14.01,2013-03-29 12:28:00,
2013-03-29 07:30:00,25.2,20.5,30.20,SSE,148,0.0,0.0,82,0.00,,SKC,0.00,VWS V14.01,2013-03-29 12:30:00,
2013-03-29 07:33:00,26.8,21.5,30.20,SSE,148,0.0,4.0,80,0.00,,SKC,0.00,VWS V14.01,2013-03-29 12:33:00,
2013-03-29 07:38:00,27.0,21.7,30.20,SSE,148,0.0,0.0,80,0.00,,SKC,0.00,VWS V14.01,2013-03-29 12:38:00,
2013-03-29 07:43:00,27.2,21.9,30.20,SSE,148,0.0,0.0,80,0.00,,SKC,0.00,VWS V14.01,2013-03-29 12:43:00,
2013-03-29 07:48:00,27.5,21.9,30.20,SSE,148,2.0,2.0,79,0.00,,SKC,0.00,VWS V14.01,2013-03-29 12:48:00,
2013-03-29 07:53:00,27.9,21.9,30.20,SSE,148,0.0,4.0,78,0.00,,SKC,0.00,VWS V14.01,2013-03-29 12:53:00,
2013-03-29 07:59:00,28.2,22.2,30.20,SSE,148,0.0,4.0,78,0.00,,SKC,0.00,VWS V14.01,2013-03-29 12:59:00,
2013-03-29 08:00:00,26.0,21.3,30.20,SSE,148,0.0,0.0,82,0.00,,SKC,0.00,VWS V14.01,2013-03-29 13:00:00,
2013-03-29 08:04:00,28.4,22.4,30.20,SSE,148,4.0,5.0,78,0.00,,SKC,0.00,VWS V14.01,2013-03-29 13:04:00,
2013-03-29 08:09:00,28.6,22.3,30.20,SSE,148,0.0,1.0,77,0.00,,SKC,0.00,VWS V14.01,2013-03-29 13:09:00,
2013-03-29 08:14:00,28.7,23.0,30.20,SSE,148,2.0,4.0,79,0.00,,SKC,0.00,VWS V14.01,2013-03-29 13:14:00,
2013-03-29 08:19:00,28.7,23.6,30.20,SSE,148,2.0,4.0,81,0.00,,SKC,0.00,VWS V14.01,2013-03-29 13:19:00,
2013-03-29 08:24:00,28.9,23.5,30.20,SSE,148,2.0,4.0,80,0.00,,SKC,0.00,VWS V14.01,2013-03-29 13:24:00,
2013-03-29 08:29:00,29.2,23.5,30.20,SSE,148,2.0,5.0,79,0.00,,SKC,0.00,VWS V14.01,2013-03-29 13:29:00,
2013-03-29 08:30:00,26.9,21.6,30.20,SSE,148,0.0,4.0,80,0.00,,SKC,0.00,VWS V14.01,2013-03-29 13:30:00,
2013-03-29 08:34:00,29.5,23.5,30.20,SSE,148,4.0,5.0,78,0.00,,SKC,0.00,VWS V14.01,2013-03-29 13:34:00,
2013-03-29 08:40:00,29.9,23.9,30.20,SSE,148,0.0,4.0,78,0.00,,SKC,0.00,VWS V14.01,2013-03-29 13:40:00,
2013-03-29 08:45:00,30.2,24.5,30.20,SSE,148,1.0,4.0,79,0.00,,SKC,0.00,VWS V14.01,2013-03-29 13:45:00,
2013-03-29 08:50:00,30.7,25.0,30.20,SSE,148,0.0,4.0,79,0.00,,SKC,0.00,VWS V14.01,2013-03-29 13:50:00,
2013-03-29 08:55:00,31.1,25.4,30.20,SSE,148,4.0,5.0,79,0.00,,SKC,0.00,VWS V14.01,2013-03-29 13:55:00,
2013-03-29 09:00:00,28.5,22.2,30.20,SSE,148,0.0,5.0,77,0.00,,SKC,0.00,VWS V14.01,2013-03-29 14:00:00,
2013-03-29 09:01:00,31.4,25.6,30.19,SSE,148,6.0,6.0,79,0.00,,SKC,0.00,VWS V14.01,2013-03-29 14:01:00,
2013-03-29 09:07:00,31.6,25.9,30.20,SE,144,5.0,6.0,79,0.00,,SKC,0.00,VWS V14.01,2013-03-29 14:07:00,
2013-03-29 09:13:00,31.8,26.0,30.20,SE,143,5.0,7.0,79,0.00,,SKC,0.00,VWS V14.01,2013-03-29 14:13:00,
2013-03-29 09:18:00,32.0,26.2,30.20,SE,142,4.0,7.0,79,0.00,,SKC,0.00,VWS V14.01,2013-03-29 14:18:00,
2013-03-29 09:24:00,32.3,26.5,30.20,SE,142,5.0,7.0,79,0.00,,SKC,0.00,VWS V14.01,2013-03-29 14:24:00,
2013-03-29 09:29:00,32.7,26.6,30.19,SE,142,6.0,7.0,78,0.00,,SKC,0.00,VWS V14.01,2013-03-29 14:29:00,
2013-03-29 09:30:00,29.6,23.6,30.20,SSE,148,2.0,6.0,78,0.00,,SKC,0.00,VWS V14.01,2013-03-29 14:30:00,
2013-03-29 09:34:00,33.1,26.7,30.19,SE,142,5.0,8.0,77,0.00,,SKC,0.00,VWS V14.01,2013-03-29 14:34:00,
2013-03-29 09:39:00,33.6,27.2,30.19,SE,141,6.0,8.0,77,0.00,,SKC,0.00,VWS V14.01,2013-03-29 14:39:00,
2013-03-29 09:44:00,34.2,27.1,30.19,SE,140,9.0,9.0,75,0.00,,SKC,0.00,VWS V14.01,2013-03-29 14:44:00,
2013-03-29 09:49:00,34.4,27.0,30.19,SE,140,3.0,9.0,74,0.00,,SKC,0.00,VWS V14.01,2013-03-29 14:49:00,
2013-03-29 09:55:00,35.3,26.9,30.19,SE,138,8.0,10.0,71,0.00,,SKC,0.00,VWS V14.01,2013-03-29 14:55:00,
2013-03-29 10:00:00,35.4,27.0,30.19,SE,138,8.0,10.0,71,0.00,,SKC,0.00,VWS V14.01,2013-03-29 15:00:00,
2013-03-29 10:05:00,35.5,26.7,30.19,SE,138,9.0,10.0,70,0.00,,SKC,0.00,VWS V14.01,2013-03-29 15:05:00,
2013-03-29 10:10:00,35.8,27.0,30.19,SE,138,9.0,9.0,70,0.00,,SKC,0.00,VWS V14.01,2013-03-29 15:10:00,
2013-03-29 10:15:00,36.2,27.4,30.19,SE,136,6.0,9.0,70,0.00,,SKC,0.00,VWS V14.01,2013-03-29 15:15:00,
2013-03-29 10:20:00,36.8,27.2,30.18,SE,134,9.0,11.0,68,0.00,,SKC,0.00,VWS V14.01,2013-03-29 15:20:00,
2013-03-29 10:25:00,37.2,27.3,30.18,SE,132,11.0,11.0,67,0.00,,SKC,0.00,VWS V14.01,2013-03-29 15:25:00,
2013-03-29 10:30:00,33.3,26.9,30.19,SE,141,5.0,8.0,77,0.00,,SKC,0.00,VWS V14.01,2013-03-29 15:30:00,
2013-03-29 10:31:00,37.3,27.4,30.18,SE,130,10.0,12.0,67,0.00,,SKC,0.00,VWS V14.01,2013-03-29 15:31:00,
2013-03-29 10:36:00,37.1,27.2,30.18,SE,128,9.0,12.0,67,0.00,,SKC,0.00,VWS V14.01,2013-03-29 15:36:00,
2013-03-29 10:41:00,36.8,27.2,30.18,SE,132,8.0,11.0,68,0.00,,SKC,0.00,VWS V14.01,2013-03-29 15:41:00,
2013-03-29 10:46:00,36.8,27.2,30.18,SE,132,10.0,11.0,68,0.00,,SKC,0.00,VWS V14.01,2013-03-29 15:46:00,
2013-03-29 10:51:00,37.1,27.5,30.18,SE,130,9.0,11.0,68,0.00,,SKC,0.00,VWS V14.01,2013-03-29 15:51:00,
2013-03-29 10:56:00,37.2,28.0,30.18,SE,130,8.0,11.0,69,0.00,,SKC,0.00,VWS V14.01,2013-03-29 15:56:00,
2013-03-29 11:00:00,35.5,26.7,30.19,SE,138,9.0,10.0,70,0.00,,SKC,0.00,VWS V14.01,2013-03-29 16:00:00,
2013-03-29 11:02:00,37.4,27.8,30.18,SE,130,9.0,12.0,68,0.00,,SKC,0.00,VWS V14.01,2013-03-29 16:02:00,
2013-03-29 11:07:00,37.6,28.0,30.18,SE,130,9.0,10.0,68,0.00,,SKC,0.00,VWS V14.01,2013-03-29 16:07:00,
2013-03-29 11:12:00,37.9,28.3,30.18,SE,130,11.0,12.0,68,0.00,,SKC,0.00,VWS V14.01,2013-03-29 16:12:00,
2013-03-29 11:17:00,38.2,28.9,30.17,SE,128,10.0,12.0,69,0.00,,SKC,0.00,VWS V14.01,2013-03-29 16:17:00,
2013-03-29 11:23:00,38.6,29.0,30.17,SE,126,10.0,12.0,68,0.00,,SKC,0.00,VWS V14.01,2013-03-29 16:23:00,
2013-03-29 11:28:00,39.0,29.0,30.17,SE,125,8.0,12.0,67,0.00,,SKC,0.00,VWS V14.01,2013-03-29 16:28:00,
2013-03-29 11:30:00,37.1,27.2,30.18,SE,128,9.0,12.0,67,0.00,,SKC,0.00,VWS V14.01,2013-03-29 16:30:00,
2013-03-29 11:33:00,39.3,29.6,30.17,SE,124,8.0,12.0,68,0.00,,SKC,0.00,VWS V14.01,2013-03-29 16:33:00,
2013-03-29 11:38:00,39.5,29.1,30.17,SE,128,9.0,11.0,66,0.00,,SKC,0.00,VWS V14.01,2013-03-29 16:38:00,
2013-03-29 11:43:00,39.5,29.5,30.17,SE,128,8.0,11.0,67,0.00,,SKC,0.00,VWS V14.01,2013-03-29 16:43:00,
2013-03-29 11:48:00,39.7,29.7,30.17,SE,132,7.0,11.0,67,0.00,,SKC,0.00,VWS V14.01,2013-03-29 16:48:00,
2013-03-29 11:53:00,40.2,30.1,30.17,SE,132,7.0,11.0,67,0.00,,SKC,0.00,VWS V14.01,2013-03-29 16:53:00,
2013-03-29 11:58:00,40.6,30.1,30.16,SE,132,8.0,11.0,66,0.00,,SKC,0.00,VWS V14.01,2013-03-29 16:58:00,
2013-03-29 12:00:00,37.6,28.0,30.18,SE,131,10.0,12.0,68,0.00,,SKC,0.00,VWS V14.01,2013-03-29 17:00:00,
2013-03-29 12:04:00,41.1,30.2,30.16,SE,132,1.0,11.0,65,0.00,,SKC,0.00,VWS V14.01,2013-03-29 17:04:00,
2013-03-29 12:09:00,41.9,30.6,30.16,SE,132,9.0,11.0,64,0.00,,SKC,0.00,VWS V14.01,2013-03-29 17:09:00,
2013-03-29 12:14:00,42.2,30.5,30.16,SE,134,7.0,11.0,63,0.00,,SKC,0.00,VWS V14.01,2013-03-29 17:14:00,
2013-03-29 12:19:00,42.8,31.5,30.16,SE,140,7.0,11.0,64,0.00,,SKC,0.00,VWS V14.01,2013-03-29 17:19:00,
2013-03-29 12:25:00,43.7,31.5,30.15,SE,138,5.0,11.0,62,0.00,,SKC,0.00,VWS V14.01,2013-03-29 17:25:00,
2013-03-29 12:30:00,44.1,31.5,30.15,SE,134,8.0,11.0,61,0.00,,SKC,0.00,VWS V14.01,2013-03-29 17:30:00,
2013-03-29 12:35:00,43.9,30.9,30.15,SE,134,9.0,11.0,60,0.00,,SKC,0.00,VWS V14.01,2013-03-29 17:35:00,
2013-03-29 12:40:00,43.6,30.6,30.15,SE,130,10.0,11.0,60,0.00,,SKC,0.00,VWS V14.01,2013-03-29 17:40:00,
2013-03-29 12:46:00,43.4,30.5,30.15,SE,129,8.0,11.0,60,0.00,,SKC,0.00,VWS V14.01,2013-03-29 17:46:00,
2013-03-29 12:51:00,43.5,31.0,30.15,SE,129,8.0,11.0,61,0.00,,SKC,0.00,VWS V14.01,2013-03-29 17:51:00,
2013-03-29 12:56:00,44.3,31.3,30.14,SE,128,8.0,11.0,60,0.00,,SKC,0.00,VWS V14.01,2013-03-29 17:56:00,
2013-03-29 13:00:00,41.4,31.3,30.16,SE,132,3.0,11.0,67,0.00,,SKC,0.00,VWS V14.01,2013-03-29 18:00:00,
2013-03-29 13:01:00,44.6,31.2,30.14,SE,128,7.0,11.0,59,0.00,,SKC,0.00,VWS V14.01,2013-03-29 18:01:00,
2013-03-29 13:06:00,44.9,31.9,30.14,SE,129,9.0,11.0,60,0.00,,SKC,0.00,VWS V14.01,2013-03-29 18:06:00,
2013-03-29 13:12:00,45.9,32.0,30.14,SE,132,4.0,9.0,58,0.00,,SKC,0.00,VWS V14.01,2013-03-29 18:12:00,
2013-03-29 13:17:00,46.7,32.7,30.14,SE,133,5.0,9.0,58,0.00,,SKC,0.00,VWS V14.01,2013-03-29 18:17:00,
2013-03-29 13:23:00,47.2,33.6,30.14,SE,134,0.0,9.0,59,0.00,,SKC,0.00,VWS V14.01,2013-03-29 18:23:00,
2013-03-29 13:28:00,48.1,33.6,30.13,SE,134,4.0,9.0,57,0.00,,SKC,0.00,VWS V14.01,2013-03-29 18:28:00,
2013-03-29 13:30:00,43.9,30.9,30.15,SE,133,10.0,11.0,60,0.00,,SKC,0.00,VWS V14.01,2013-03-29 18:30:00,
2013-03-29 13:33:00,48.8,33.4,30.13,SE,134,8.0,9.0,55,0.00,,SKC,0.00,VWS V14.01,2013-03-29 18:33:00,
2013-03-29 13:38:00,48.9,33.0,30.12,SSE,147,6.0,11.0,54,0.00,,SKC,0.00,VWS V14.01,2013-03-29 18:38:00,
2013-03-29 13:43:00,48.8,32.9,30.13,SSE,148,4.0,11.0,54,0.00,,SKC,0.00,VWS V14.01,2013-03-29 18:43:00,
2013-03-29 13:48:00,49.2,33.3,30.12,SSE,148,6.0,11.0,54,0.00,,SKC,0.00,VWS V14.01,2013-03-29 18:48:00,
2013-03-29 13:54:00,49.8,33.4,30.12,SSE,148,4.0,11.0,53,0.00,,SKC,0.00,VWS V14.01,2013-03-29 18:54:00,
2013-03-29 13:59:00,50.1,33.7,30.12,SE,146,2.0,11.0,53,0.00,,SKC,0.00,VWS V14.01,2013-03-29 18:59:00,
2013-03-29 14:00:00,44.9,31.9,30.14,SE,129,9.0,11.0,60,0.00,,SKC,0.00,VWS V14.01,2013-03-29 19:00:00,
2013-03-29 14:04:00,50.7,33.7,30.11,SSE,147,4.0,11.0,52,0.00,,SKC,0.00,VWS V14.01,2013-03-29 19:04:00,
2013-03-29 14:09:00,50.7,33.7,30.11,SE,146,5.0,10.0,52,0.00,,SKC,0.00,VWS V14.01,2013-03-29 19:09:00,
2013-03-29 14:14:00,50.3,33.8,30.11,SE,146,7.0,13.0,53,0.00,,SKC,0.00,VWS V14.01,2013-03-29 19:14:00,
2013-03-29 14:19:00,49.2,33.3,30.11,SSE,148,5.0,13.0,54,0.00,,SKC,0.00,VWS V14.01,2013-03-29 19:19:00,
2013-03-29 14:25:00,49.0,34.0,30.11,SSE,148,0.0,13.0,56,0.00,,SKC,0.00,VWS V14.01,2013-03-29 19:25:00,
2013-03-29 14:30:00,49.6,34.1,30.11,SSE,148,0.0,13.0,55,0.00,,SKC,0.00,VWS V14.01,2013-03-29 19:30:00,
2013-03-29 14:35:00,50.1,34.6,30.11,SSE,148,0.0,13.0,55,0.00,,SKC,0.00,VWS V14.01,2013-03-29 19:35:00,
2013-03-29 14:40:00,50.5,34.0,30.11,SSE,148,1.0,4.0,53,0.00,,SKC,0.00,VWS V14.01,2013-03-29 19:40:00,
2013-03-29 14:45:00,50.7,34.2,30.10,SSE,148,7.0,8.0,53,0.00,,SKC,0.00,VWS V14.01,2013-03-29 19:45:00,
2013-03-29 14:50:00,49.5,33.1,30.10,SE,146,8.0,10.0,53,0.00,,SKC,0.00,VWS V14.01,2013-03-29 19:50:00,
2013-03-29 14:55:00,48.1,32.7,30.10,SSE,148,4.0,12.0,55,0.00,,SKC,0.00,VWS V14.01,2013-03-29 19:55:00,
2013-03-29 15:00:00,47.2,32.8,30.10,SSE,147,4.0,12.0,57,0.00,,SKC,0.00,VWS V14.01,2013-03-29 20:00:00,
2013-03-29 15:05:00,46.9,32.9,30.10,SSE,147,5.0,12.0,58,0.00,,SKC,0.00,VWS V14.01,2013-03-29 20:05:00,
2013-03-29 15:11:00,46.9,32.9,30.10,SE,146,4.0,9.0,58,0.00,,SKC,0.00,VWS V14.01,2013-03-29 20:11:00,
2013-03-29 15:16:00,46.8,32.8,30.09,SE,145,4.0,11.0,58,0.00,,SKC,0.00,VWS V14.01,2013-03-29 20:16:00,
2013-03-29 15:21:00,46.7,32.7,30.10,SE,146,0.0,11.0,58,0.00,,SKC,0.00,VWS V14.01,2013-03-29 20:21:00,
2013-03-29 15:27:00,47.0,33.4,30.09,SE,145,4.0,11.0,59,0.00,,SKC,0.00,VWS V14.01,2013-03-29 20:27:00,
2013-03-29 15:30:00,50.1,34.6,30.11,SSE,148,0.0,13.0,55,0.00,,SKC,0.00,VWS V14.01,2013-03-29 20:30:00,
2013-03-29 15:32:00,46.9,33.3,30.09,SE,146,2.0,11.0,59,0.00,,SKC,0.00,VWS V14.01,2013-03-29 20:32:00,
2013-03-29 15:38:00,46.7,33.6,30.09,SE,146,1.0,6.0,60,0.00,,SKC,0.00,VWS V14.01,2013-03-29 20:38:00,
2013-03-29 15:43:00,46.7,33.6,30.09,SE,146,0.0,7.0,60,0.00,,SKC,0.00,VWS V14.01,2013-03-29 20:43:00,
2013-03-29 15:48:00,46.9,33.8,30.08,SE,146,0.0,7.0,60,0.00,,SKC,0.00,VWS V14.01,2013-03-29 20:48:00,
2013-03-29 15:53:00,47.3,34.1,30.08,SE,146,0.0,7.0,60,0.00,,SKC,0.00,VWS V14.01,2013-03-29 20:53:00,
2013-03-29 15:58:00,47.9,34.3,30.08,SE,146,0.0,7.0,59,0.00,,SKC,0.00,VWS V14.01,2013-03-29 20:58:00,
2013-03-29 16:00:00,46.9,32.9,30.10,SE,146,5.0,12.0,58,0.00,,SKC,0.00,VWS V14.01,2013-03-29 21:00:00,
2013-03-29 16:03:00,48.1,34.0,30.08,SE,146,1.0,9.0,58,0.00,,SKC,0.00,VWS V14.01,2013-03-29 21:03:00,
2013-03-29 16:09:00,47.9,33.8,30.08,SE,144,10.0,11.0,58,0.00,,SKC,0.00,VWS V14.01,2013-03-29 21:09:00,
2013-03-29 16:14:00,47.9,33.8,30.07,SE,144,3.0,11.0,58,0.00,,SKC,0.00,VWS V14.01,2013-03-29 21:14:00,
2013-03-29 16:19:00,47.9,33.8,30.07,SE,145,9.0,11.0,58,0.00,,SKC,0.00,VWS V14.01,2013-03-29 21:19:00,
2013-03-29 16:24:00,47.6,33.6,30.07,SE,144,5.0,11.0,58,0.00,,SKC,0.00,VWS V14.01,2013-03-29 21:24:00,
2013-03-29 16:29:00,47.6,33.6,30.07,SE,144,0.0,11.0,58,0.00,,SKC,0.00,VWS V14.01,2013-03-29 21:29:00,
2013-03-29 16:30:00,46.7,33.2,30.09,SE,146,2.0,11.0,59,0.00,,SKC,0.00,VWS V14.01,2013-03-29 21:30:00,
2013-03-29 16:35:00,47.8,33.8,30.07,SE,146,4.0,11.0,58,0.00,,SKC,0.00,VWS V14.01,2013-03-29 21:35:00,
2013-03-29 16:40:00,47.6,34.0,30.07,SSE,152,6.0,10.0,59,0.00,,SKC,0.00,VWS V14.01,2013-03-29 21:40:00,
2013-03-29 16:45:00,47.4,33.8,30.07,SSE,152,0.0,10.0,59,0.00,,SKC,0.00,VWS V14.01,2013-03-29 21:45:00,
2013-03-29 16:50:00,47.6,34.0,30.06,SSE,152,3.0,10.0,59,0.00,,SKC,0.00,VWS V14.01,2013-03-29 21:50:00,
2013-03-29 16:55:00,48.0,33.9,30.06,SSE,152,5.0,10.0,58,0.00,,SKC,0.00,VWS V14.01,2013-03-29 21:55:00,
2013-03-29 17:00:00,47.9,33.8,30.06,SSE,152,4.0,10.0,58,0.00,,SKC,0.00,VWS V14.01,2013-03-29 22:00:00,
2013-03-29 17:05:00,47.4,33.8,30.06,SSE,148,2.0,10.0,59,0.00,,SKC,0.00,VWS V14.01,2013-03-29 22:05:00,
2013-03-29 17:10:00,47.5,33.9,30.06,SSE,148,0.0,4.0,59,0.00,,SKC,0.00,VWS V14.01,2013-03-29 22:10:00,
2013-03-29 17:15:00,47.9,34.3,30.06,SSE,148,0.0,5.0,59,0.00,,SKC,0.00,VWS V14.01,2013-03-29 22:15:00,
2013-03-29 17:21:00,48.2,34.1,30.05,SSE,147,0.0,7.0,58,0.00,,SKC,0.00,VWS V14.01,2013-03-29 22:21:00,
2013-03-29 17:26:00,48.2,33.7,30.05,SE,146,2.0,7.0,57,0.00,,SKC,0.00,VWS V14.01,2013-03-29 22:26:00,
2013-03-29 17:30:00,47.8,33.8,30.07,SE,146,0.0,11.0,58,0.00,,SKC,0.00,VWS V14.01,2013-03-29 22:30:00,
2013-03-29 17:31:00,48.0,33.9,30.05,SSE,147,1.0,9.0,58,0.00,,SKC,0.00,VWS V14.01,2013-03-29 22:31:00,
2013-03-29 17:36:00,47.7,33.7,30.05,SSE,147,0.0,9.0,58,0.00,,SKC,0.00,VWS V14.01,2013-03-29 22:36:00,
2013-03-29 17:41:00,47.1,33.5,30.05,SSE,147,0.0,5.0,59,0.00,,SKC,0.00,VWS V14.01,2013-03-29 22:41:00,
2013-03-29 17:46:00,46.8,33.2,30.05,SSE,147,1.0,6.0,59,0.00,,SKC,0.00,VWS V14.01,2013-03-29 22:46:00,
2013-03-29 17:53:00,46.5,33.4,30.05,SSE,147,4.0,12.0,60,0.00,,SKC,0.00,VWS V14.01,2013-03-29 22:53:00,
2013-03-29 17:58:00,46.2,33.1,30.05,SE,146,5.0,12.0,60,0.00,,SKC,0.00,VWS V14.01,2013-03-29 22:58:00,
2013-03-29 18:00:00,47.4,33.8,30.06,SSE,148,4.0,10.0,59,0.00,,SKC,0.00,VWS V14.01,2013-03-29 23:00:00,
2013-03-29 18:03:00,45.7,32.6,30.05,SE,146,2.0,12.0,60,0.00,,SKC,0.00,VWS V14.01,2013-03-29 23:03:00,
2013-03-29 18:08:00,45.0,32.4,30.05,SE,145,7.0,9.0,61,0.00,,SKC,0.00,VWS V14.01,2013-03-29 23:08:00,
2013-03-29 18:13:00,44.6,32.4,30.05,SE,144,6.0,9.0,62,0.00,,SKC,0.00,VWS V14.01,2013-03-29 23:13:00,
2013-03-29 18:18:00,44.2,32.4,30.05,SE,146,8.0,10.0,63,0.00,,SKC,0.00,VWS V14.01,2013-03-29 23:18:00,
2013-03-29 18:23:00,44.1,32.3,30.05,SE,145,4.0,10.0,63,0.00,,SKC,0.00,VWS V14.01,2013-03-29 23:23:00,
2013-03-29 18:29:00,43.8,32.4,30.05,SE,145,4.0,10.0,64,0.00,,SKC,0.00,VWS V14.01,2013-03-29 23:29:00,
2013-03-29 18:30:00,47.7,33.7,30.05,SSE,147,0.0,9.0,58,0.00,,SKC,0.00,VWS V14.01,2013-03-29 23:30:00,
2013-03-29 18:34:00,43.6,32.2,30.05,SE,145,5.0,10.0,64,0.00,,SKC,0.00,VWS V14.01,2013-03-29 23:34:00,
2013-03-29 18:39:00,43.2,32.2,30.05,SE,145,8.0,9.0,65,0.00,,SKC,0.00,VWS V14.01,2013-03-29 23:39:00,
2013-03-29 18:44:00,43.1,32.2,30.05,SE,144,7.0,9.0,65,0.00,,SKC,0.00,VWS V14.01,2013-03-29 23:44:00,
2013-03-29 18:49:00,42.9,32.0,30.05,SE,144,6.0,9.0,65,0.00,,SKC,0.00,VWS V14.01,2013-03-29 23:49:00,
2013-03-29 18:54:00,42.8,31.9,30.04,SE,146,7.0,9.0,65,0.00,,SKC,0.00,VWS V14.01,2013-03-29 23:54:00,
2013-03-29 18:59:00,42.7,32.2,30.04,SE,146,4.0,9.0,66,0.00,,SKC,0.00,VWS V14.01,2013-03-29 23:59:00,
2013-03-29 19:00:00,45.4,32.8,30.05,SE,146,6.0,12.0,61,0.00,,SKC,0.00,VWS V14.01,2013-03-30 00:00:00,
2013-03-29 19:04:00,42.4,31.9,30.04,SE,146,3.0,12.0,66,0.00,,SKC,0.00,VWS V14.01,2013-03-30 00:04:00,
2013-03-29 19:09:00,42.1,32.0,30.04,SE,146,0.0,5.0,67,0.00,,SKC,0.00,VWS V14.01,2013-03-30 00:09:00,
2013-03-29 19:14:00,41.8,31.7,30.04,SE,146,6.0,6.0,67,0.00,,SKC,0.00,VWS V14.01,2013-03-30 00:14:00,
2013-03-29 19:19:00,41.7,31.6,30.04,SE,146,1.0,7.0,67,0.00,,SKC,0.00,VWS V14.01,2013-03-30 00:19:00,
2013-03-29 19:25:00,41.6,31.8,30.03,SE,146,6.0,7.0,68,0.00,,SKC,0.00,VWS V14.01,2013-03-30 00:25:00,
2013-03-29 19:30:00,41.5,31.7,30.03,SE,146,7.0,7.0,68,0.00,,SKC,0.00,VWS V14.01,2013-03-30 00:30:00,
2013-03-29 19:35:00,41.2,31.5,30.03,SE,146,6.0,8.0,68,0.00,,SKC,0.00,VWS V14.01,2013-03-30 00:35:00,
2013-03-29 19:40:00,41.0,31.6,30.03,SE,146,6.0,8.0,69,0.00,,SKC,0.00,VWS V14.01,2013-03-30 00:40:00,
2013-03-29 19:45:00,40.9,31.5,30.03,SE,145,5.0,9.0,69,0.00,,SKC,0.00,VWS V14.01,2013-03-30 00:45:00,
2013-03-29 19:50:00,40.7,31.7,30.03,SE,145,8.0,9.0,70,0.00,,SKC,0.00,VWS V14.01,2013-03-30 00:50:00,
2013-03-29 19:55:00,40.4,31.4,30.03,SE,145,8.0,9.0,70,0.00,,SKC,0.00,VWS V14.01,2013-03-30 00:55:00,
2013-03-29 20:00:00,40.1,31.5,30.02,SE,146,5.0,9.0,71,0.00,,SKC,0.00,VWS V14.01,2013-03-30 01:00:00,
2013-03-29 20:06:00,39.9,31.6,30.03,SE,146,2.0,9.0,72,0.00,,SKC,0.00,VWS V14.01,2013-03-30 01:06:00,
2013-03-29 20:11:00,39.9,31.6,30.02,SE,146,7.0,7.0,72,0.00,,SKC,0.00,VWS V14.01,2013-03-30 01:11:00,
2013-03-29 20:16:00,39.8,31.5,30.02,SE,146,4.0,7.0,72,0.00,,SKC,0.00,VWS V14.01,2013-03-30 01:16:00,
2013-03-29 20:22:00,39.7,31.8,30.02,SE,146,5.0,8.0,73,0.00,,SKC,0.00,VWS V14.01,2013-03-30 01:22:00,
2013-03-29 20:27:00,39.6,31.7,30.02,SE,146,7.0,8.0,73,0.00,,SKC,0.00,VWS V14.01,2013-03-30 01:27:00,
2013-03-29 20:30:00,41.2,31.5,30.03,SE,146,5.0,8.0,68,0.00,,SKC,0.00,VWS V14.01,2013-03-30 01:30:00,
2013-03-29 20:32:00,39.4,31.5,30.02,SE,146,6.0,8.0,73,0.00,,SKC,0.00,VWS V14.01,2013-03-30 01:32:00,
2013-03-29 20:38:00,39.3,31.4,30.02,SE,146,6.0,7.0,73,0.00,,SKC,0.00,VWS V14.01,2013-03-30 01:38:00,
2013-03-29 20:43:00,39.3,31.4,30.02,SE,146,5.0,7.0,73,0.00,,SKC,0.00,VWS V14.01,2013-03-30 01:43:00,
2013-03-29 20:48:00,39.3,31.0,30.02,SE,146,4.0,7.0,72,0.00,,SKC,0.00,VWS V14.01,2013-03-30 01:48:00,
2013-03-29 20:53:00,39.1,30.9,30.01,SE,146,8.0,8.0,72,0.00,,SKC,0.00,VWS V14.01,2013-03-30 01:53:00,
2013-03-29 20:58:00,39.1,31.2,30.01,SE,145,7.0,9.0,73,0.00,,SKC,0.00,VWS V14.01,2013-03-30 01:58:00,
2013-03-29 21:00:00,39.9,31.6,30.03,SE,146,2.0,9.0,72,0.00,,SKC,0.00,VWS V14.01,2013-03-30 02:00:00,
2013-03-29 21:03:00,39.0,31.1,30.01,SE,145,7.0,9.0,73,0.00,,SKC,0.00,VWS V14.01,2013-03-30 02:03:00,
2013-03-29 21:08:00,38.9,31.0,30.01,SE,145,5.0,8.0,73,0.00,,SKC,0.00,VWS V14.01,2013-03-30 02:08:00,
2013-03-29 21:13:00,38.8,30.9,30.01,SE,145,5.0,8.0,73,0.00,,SKC,0.00,VWS V14.01,2013-03-30 02:13:00,
2013-03-29 21:19:00,38.6,31.0,30.01,SE,145,7.0,8.0,74,0.00,,SKC,0.00,VWS V14.01,2013-03-30 02:19:00,
2013-03-29 21:24:00,38.6,31.0,30.00,SE,145,7.0,8.0,74,0.00,,SKC,0.00,VWS V14.01,2013-03-30 02:24:00,
2013-03-29 21:29:00,38.4,30.9,30.00,SE,145,6.0,8.0,74,0.00,,SKC,0.00,VWS V14.01,2013-03-30 02:29:00,
2013-03-29 21:30:00,39.3,31.4,30.02,SE,146,4.0,8.0,73,0.00,,SKC,0.00,VWS V14.01,2013-03-30 02:30:00,
2013-03-29 21:34:00,38.4,30.9,30.00,SE,145,6.0,8.0,74,0.00,,SKC,0.00,VWS V14.01,2013-03-30 02:34:00,
2013-03-29 21:39:00,38.3,31.1,30.00,SE,144,7.0,9.0,75,0.00,,SKC,0.00,VWS V14.01,2013-03-30 02:39:00,
2013-03-29 21:44:00,38.2,31.0,30.00,SE,140,10.0,10.0,75,0.00,,SKC,0.00,VWS V14.01,2013-03-30 02:44:00,
2013-03-29 21:49:00,38.1,31.2,29.99,SE,138,8.0,11.0,76,0.00,,SKC,0.00,VWS V14.01,2013-03-30 02:49:00,
2013-03-29 21:54:00,38.0,31.1,29.99,SE,136,8.0,11.0,76,0.00,,SKC,0.00,VWS V14.01,2013-03-30 02:54:00,
2013-03-29 21:59:00,38.1,31.2,29.99,SE,136,9.0,11.0,76,0.00,,SKC,0.00,VWS V14.01,2013-03-30 02:59:00,
2013-03-29 22:00:00,39.0,31.1,30.01,SE,145,8.0,9.0,73,0.00,,SKC,0.00,VWS V14.01,2013-03-30 03:00:00,
2013-03-29 22:05:00,38.1,31.2,29.99,SE,137,5.0,11.0,76,0.00,,SKC,0.00,VWS V14.01,2013-03-30 03:05:00,
2013-03-29 22:10:00,38.0,31.4,29.99,SE,139,9.0,10.0,77,0.00,,SKC,0.00,VWS V14.01,2013-03-30 03:10:00,
2013-03-29 22:15:00,38.0,31.4,29.99,SE,139,4.0,10.0,77,0.00,,SKC,0.00,VWS V14.01,2013-03-30 03:15:00,
2013-03-29 22:20:00,38.0,31.8,29.99,SE,139,1.0,10.0,78,0.00,,SKC,0.00,VWS V14.01,2013-03-30 03:20:00,
2013-03-29 22:25:00,38.2,32.0,29.99,SE,139,0.0,10.0,78,0.00,,SKC,0.00,VWS V14.01,2013-03-30 03:25:00,
2013-03-29 22:30:00,38.2,32.3,29.99,SE,139,0.0,10.0,79,0.00,,SKC,0.00,VWS V14.01,2013-03-30 03:30:00,
2013-03-29 22:35:00,38.0,32.4,29.99,SE,139,2.0,10.0,80,0.00,,SKC,0.00,VWS V14.01,2013-03-30 03:35:00,
2013-03-29 22:40:00,37.9,32.3,29.99,SE,139,0.0,1.0,80,0.01,,SKC,0.01,VWS V14.01,2013-03-30 03:40:00,
2013-03-29 22:45:00,37.8,32.8,29.98,SE,139,5.0,8.0,82,0.03,,SKC,0.03,VWS V14.01,2013-03-30 03:45:00,
2013-03-29 22:50:00,37.6,32.9,29.98,SE,139,0.0,8.0,83,0.04,,SKC,0.04,VWS V14.01,2013-03-30 03:50:00,
2013-03-29 22:56:00,37.4,33.0,29.98,SE,139,1.0,8.0,84,0.04,,SKC,0.04,VWS V14.01,2013-03-30 03:56:00,
2013-03-29 23:00:00,37.2,32.8,29.98,SE,139,0.0,8.0,84,0.04,,SKC,0.04,VWS V14.01,2013-03-30 04:00:00,
2013-03-29 23:01:00,37.2,33.1,29.98,SE,139,0.0,8.0,85,0.04,,SKC,0.04,VWS V14.01,2013-03-30 04:01:00,
2013-03-29 23:06:00,37.0,32.9,29.98,SE,139,0.0,8.0,85,0.04,,SKC,0.04,VWS V14.01,2013-03-30 04:06:00,
2013-03-29 23:08:00,37.0,33.2,29.98,SE,139,0.0,0.0,86,0.04,,SKC,0.04,VWS V14.01,2013-03-30 04:08:00,
2013-03-29 23:13:00,36.9,33.1,29.97,SE,139,1.0,1.0,86,0.04,,SKC,0.04,VWS V14.01,2013-03-30 04:13:00,
2013-03-29 23:18:00,36.8,33.3,29.97,SE,139,0.0,2.0,87,0.04,,SKC,0.04,VWS V14.01,2013-03-30 04:18:00,
2013-03-29 23:23:00,36.8,33.6,29.97,SE,139,2.0,2.0,88,0.04,,SKC,0.04,VWS V14.01,2013-03-30 04:23:00,
2013-03-29 23:28:00,36.7,33.5,29.97,SE,139,4.0,6.0,88,0.04,,SKC,0.04,VWS V14.01,2013-03-30 04:28:00,
2013-03-29 23:30:00,38.0,32.4,29.99,SE,139,1.0,10.0,80,0.00,,SKC,0.00,VWS V14.01,2013-03-30 04:30:00,
2013-03-29 23:34:00,36.6,33.4,29.96,SE,139,2.0,6.0,88,0.04,,SKC,0.04,VWS V14.01,2013-03-30 04:34:00,
2013-03-29 23:39:00,36.4,33.5,29.96,SE,139,5.0,6.0,89,0.04,,SKC,0.04,VWS V14.01,2013-03-30 04:39:00,
2013-03-29 23:44:00,36.2,33.3,29.96,SE,139,5.0,6.0,89,0.04,,SKC,0.04,VWS V14.01,2013-03-30 04:44:00,
2013-03-29 23:49:00,36.1,33.2,29.96,SE,139,6.0,6.0,89,0.05,,SKC,0.05,VWS V14.01,2013-03-30 04:49:00,
2013-03-29 23:54:00,35.9,33.0,29.96,SE,139,5.0,6.0,89,0.05,,SKC,0.05,VWS V14.01,2013-03-30 04:54:00,
2013-03-29 23:59:00,35.8,33.2,29.96,SE,139,4.0,6.0,90,0.06,,SKC,0.06,VWS V14.01,2013-03-30 04:59:00,